Time;durP1;ratioP1;P1;durP2;ratioP2;P2;SDS_P1;SDS_P2;PMS_P1;PMS_P2;Temp;Humidity;BMP_temperature;BMP_pressure;BME280_temperature;BME280_humidity;BME280_pressure;Samples;Min_cycle;Max_cycle;Signal;HPM_P1;HPM_P2
2022/08/10 00:01:08;;;;;;;9.40;2.50;;;21.30;32.00;;;;;;5033557;28;20455;-71
2022/08/10 00:03:54;;;;;;;5.87;2.30;;;21.20;31.40;;;;;;5023418;28;20466;-71
2022/08/10 00:06:39;;;;;;;5.90;2.50;;;21.20;32.90;;;;;;5029991;28;20435;-71
2022/08/10 00:09:25;;;;;;;4.07;2.67;;;21.00;32.50;;;;;;5035412;28;20498;-71
2022/08/10 00:12:11;;;;;;;8.37;2.33;;;20.90;33.60;;;;;;5034423;28;20879;-70
2022/08/10 00:14:58;;;;;;;5.40;2.67;;;20.90;34.30;;;;;;5033096;28;20417;-71
2022/08/10 00:17:44;;;;;;;9.53;2.77;;;20.90;34.70;;;;;;5031403;28;20443;-70
2022/08/10 00:20:30;;;;;;;5.90;3.97;;;20.90;34.80;;;;;;5034163;28;20448;-71
2022/08/10 00:23:16;;;;;;;3.03;2.20;;;20.80;34.00;;;;;;5025061;28;20445;-72
2022/08/10 00:26:02;;;;;;;5.17;2.10;;;20.80;34.60;;;;;;5033827;28;20475;-71
2022/08/10 00:28:47;;;;;;;4.07;2.60;;;20.80;35.30;;;;;;5030038;28;20448;-71
2022/08/10 00:31:34;;;;;;;3.70;2.50;;;20.80;35.10;;;;;;5028620;28;20472;-71
2022/08/10 00:34:20;;;;;;;3.63;2.10;;;20.70;35.30;;;;;;5011102;28;20472;-71
2022/08/10 00:37:06;;;;;;;3.47;2.50;;;20.60;35.20;;;;;;5018960;28;20440;-71
2022/08/10 00:39:51;;;;;;;7.07;2.87;;;20.60;35.90;;;;;;5018592;28;20925;-71
2022/08/10 00:42:37;;;;;;;6.40;2.40;;;20.50;35.00;;;;;;5014890;28;20465;-71
2022/08/10 00:45:22;;;;;;;3.53;2.57;;;20.50;35.80;;;;;;5021845;28;20852;-69
2022/08/10 00:48:09;;;;;;;4.20;2.60;;;20.40;35.90;;;;;;5023538;28;20495;-72
2022/08/10 00:50:57;;;;;;;3.97;2.43;;;20.40;35.70;;;;;;5030346;28;21204;-72
2022/08/10 00:53:42;;;;;;;4.13;2.27;;;20.10;36.50;;;;;;5028433;28;20436;-72
2022/08/10 00:56:28;;;;;;;4.90;2.50;;;20.10;36.60;;;;;;5030460;28;20447;-69
2022/08/10 00:59:14;;;;;;;7.90;2.67;;;20.10;36.80;;;;;;5035400;28;20870;-70
2022/08/10 01:02:00;;;;;;;4.57;2.57;;;19.90;38.20;;;;;;5028390;28;20607;-72
2022/08/10 01:04:48;;;;;;;3.17;2.23;;;20.00;38.10;;;;;;5031061;28;20521;-72
2022/08/10 01:07:49;;;;;;;4.90;2.20;;;19.90;38.50;;;;;;5027278;28;20527;-72
2022/08/10 01:10:42;;;;;;;3.57;2.10;;;20.00;39.40;;;;;;5035249;28;21105;-72
2022/08/10 01:13:35;;;;;;;3.10;2.30;;;19.80;38.50;;;;;;5028993;28;20507;-69
2022/08/10 01:16:26;;;;;;;4.40;2.30;;;19.80;38.20;;;;;;5032662;28;20448;-72
2022/08/10 01:19:27;;;;;;;5.67;2.90;;;19.60;38.30;;;;;;5032178;28;20966;-71
2022/08/10 01:22:33;;;;;;;7.13;3.17;;;19.60;39.10;;;;;;5026324;28;20472;-72
2022/08/10 01:25:40;;;;;;;5.57;2.93;;;19.60;39.10;;;;;;5036341;28;20490;-72
2022/08/10 01:28:38;;;;;;;6.87;2.90;;;19.50;39.10;;;;;;5032066;28;20471;-72
2022/08/10 01:31:32;;;;;;;6.03;2.73;;;19.50;39.10;;;;;;5029561;28;20476;-72
2022/08/10 01:34:22;;;;;;;16.67;3.00;;;19.50;40.50;;;;;;5025066;28;20515;-71
2022/08/10 01:37:12;;;;;;;3.80;2.00;;;19.30;39.90;;;;;;5029294;28;20808;-72
2022/08/10 01:40:01;;;;;;;4.37;2.50;;;19.30;38.80;;;;;;5031517;28;20448;-71
2022/08/10 01:42:47;;;;;;;5.40;2.80;;;19.30;39.80;;;;;;5026166;28;20472;-71
2022/08/10 01:45:35;;;;;;;5.27;3.00;;;19.40;39.80;;;;;;5030543;28;20847;-71
2022/08/10 01:48:29;;;;;;;4.87;2.40;;;19.30;39.80;;;;;;5034672;28;20506;-71
2022/08/10 01:51:21;;;;;;;5.80;2.37;;;19.30;41.30;;;;;;5031623;28;20487;-71
2022/08/10 01:54:09;;;;;;;6.57;2.40;;;19.10;40.40;;;;;;5030783;28;20444;-72
2022/08/10 01:56:58;;;;;;;4.70;2.37;;;19.10;41.40;;;;;;5034976;28;20451;-72
2022/08/10 01:59:45;;;;;;;4.40;2.37;;;19.10;41.70;;;;;;5030623;28;20958;-71
2022/08/10 02:02:33;;;;;;;4.77;2.80;;;18.90;43.00;;;;;;5030973;28;20471;-71
2022/08/10 02:05:23;;;;;;;2.90;2.50;;;18.90;43.10;;;;;;5037071;28;20471;-71
2022/08/10 02:08:14;;;;;;;5.43;3.33;;;18.80;43.50;;;;;;5036390;28;20459;-71
2022/08/10 02:11:02;;;;;;;6.27;2.87;;;18.70;44.10;;;;;;5032950;28;20472;-71
2022/08/10 02:13:48;;;;;;;6.67;2.47;;;18.80;43.90;;;;;;5030821;28;20560;-71
2022/08/10 02:16:36;;;;;;;7.40;2.90;;;18.70;43.70;;;;;;5034579;28;20448;-71
2022/08/10 02:19:24;;;;;;;4.20;2.33;;;18.60;44.40;;;;;;5036376;28;20555;-71
2022/08/10 02:22:12;;;;;;;5.53;3.50;;;18.80;45.00;;;;;;5029241;28;20475;-71
2022/08/10 02:25:00;;;;;;;4.23;2.90;;;18.80;44.10;;;;;;5033822;28;20822;-72
2022/08/10 02:27:47;;;;;;;6.77;3.40;;;18.80;44.60;;;;;;5036170;28;20435;-71
2022/08/10 02:30:33;;;;;;;6.63;2.50;;;18.50;44.60;;;;;;5031206;28;20445;-71
2022/08/10 02:33:21;;;;;;;3.73;2.23;;;18.50;45.40;;;;;;5030920;28;20925;-71
2022/08/10 02:36:11;;;;;;;5.60;3.17;;;18.40;46.40;;;;;;5033411;28;20441;-72
2022/08/10 02:39:02;;;;;;;4.43;3.00;;;18.60;45.50;;;;;;5029979;28;20997;-71
2022/08/10 02:41:58;;;;;;;4.60;2.90;;;18.60;45.30;;;;;;5034244;28;20461;-71
2022/08/10 02:44:50;;;;;;;3.73;2.97;;;18.40;46.20;;;;;;5033253;28;20523;-72
2022/08/10 02:47:46;;;;;;;3.93;2.90;;;18.40;45.90;;;;;;5033766;28;20455;-72
2022/08/10 02:50:33;;;;;;;11.47;2.83;;;18.40;46.60;;;;;;5036490;28;21518;-71
2022/08/10 02:53:23;;;;;;;6.40;2.70;;;18.40;45.60;;;;;;5034244;28;20527;-72
2022/08/10 02:56:16;;;;;;;5.33;2.97;;;18.60;45.90;;;;;;5033315;28;20440;-72
2022/08/10 02:59:07;;;;;;;3.87;2.67;;;18.60;45.90;;;;;;5030792;28;20456;-71
2022/08/10 03:01:56;;;;;;;8.00;3.47;;;18.40;45.60;;;;;;5026463;28;20474;-72
2022/08/10 03:04:46;;;;;;;5.47;2.70;;;18.30;46.50;;;;;;5032879;28;20954;-71
2022/08/10 03:07:37;;;;;;;4.87;3.03;;;18.30;47.50;;;;;;5035484;28;22392;-71
2022/08/10 03:10:27;;;;;;;7.77;3.00;;;18.30;47.50;;;;;;5034224;28;20451;-71
2022/08/10 03:13:16;;;;;;;4.00;3.20;;;18.30;46.90;;;;;;5028429;28;20607;-70
2022/08/10 03:16:03;;;;;;;3.47;2.23;;;18.40;46.90;;;;;;5036927;28;20744;-72
2022/08/10 03:18:51;;;;;;;3.23;2.37;;;18.20;46.50;;;;;;5035309;28;20444;-71
2022/08/10 03:21:39;;;;;;;5.80;2.77;;;18.20;47.00;;;;;;5028581;28;20952;-72
2022/08/10 03:24:26;;;;;;;8.77;3.07;;;18.10;47.80;;;;;;5037900;28;20439;-70
2022/08/10 03:27:13;;;;;;;4.40;2.93;;;18.10;47.90;;;;;;5034069;28;20457;-71
2022/08/10 03:30:00;;;;;;;7.37;2.70;;;18.10;48.20;;;;;;5024760;28;20706;-71
2022/08/10 03:32:47;;;;;;;4.70;2.50;;;18.00;49.70;;;;;;5029508;28;20856;-72
2022/08/10 03:35:32;;;;;;;5.10;3.20;;;18.00;49.40;;;;;;5030994;28;20473;-72
2022/08/10 03:38:18;;;;;;;6.40;3.13;;;18.00;49.80;;;;;;5031791;28;20463;-72
2022/08/10 03:41:08;;;;;;;3.50;2.57;;;17.90;50.10;;;;;;5033134;28;20512;-71
2022/08/10 03:43:54;;;;;;;4.33;3.03;;;17.90;50.10;;;;;;5027506;28;20444;-71
2022/08/10 03:46:44;;;;;;;8.20;2.30;;;17.90;51.10;;;;;;5035099;28;20474;-71
2022/08/10 03:49:32;;;;;;;5.93;3.00;;;17.90;51.10;;;;;;5032798;28;20458;-72
2022/08/10 03:52:19;;;;;;;6.30;2.77;;;17.90;51.10;;;;;;5027532;28;21001;-72
2022/08/10 03:55:06;;;;;;;6.60;3.10;;;17.90;50.60;;;;;;5035979;28;20444;-72
2022/08/10 03:57:51;;;;;;;4.03;3.10;;;17.80;51.00;;;;;;5022523;28;20592;-70
2022/08/10 04:00:38;;;;;;;8.37;2.73;;;17.90;51.10;;;;;;5032885;28;20436;-71
2022/08/10 04:03:25;;;;;;;6.83;3.40;;;17.80;51.00;;;;;;5032441;28;20479;-72
2022/08/10 04:06:11;;;;;;;6.77;3.27;;;17.90;51.10;;;;;;5034116;28;20468;-72
2022/08/10 04:08:58;;;;;;;6.87;2.60;;;18.00;51.20;;;;;;5025043;28;20965;-71
2022/08/10 04:11:44;;;;;;;3.70;2.70;;;17.90;51.10;;;;;;5026275;28;20603;-71
2022/08/10 04:14:30;;;;;;;5.20;3.10;;;18.10;51.30;;;;;;5035344;28;20447;-72
2022/08/10 04:17:15;;;;;;;9.73;3.13;;;18.10;51.30;;;;;;5039764;28;20443;-72
2022/08/10 04:20:04;;;;;;;8.37;2.93;;;18.00;51.20;;;;;;5036512;28;20444;-71
2022/08/10 04:22:57;;;;;;;7.60;2.60;;;17.80;51.40;;;;;;5030234;28;20468;-71
2022/08/10 04:25:43;;;;;;;8.47;2.60;;;17.70;52.40;;;;;;5029686;28;20472;-72
2022/08/10 04:28:31;;;;;;;3.03;2.33;;;17.70;53.20;;;;;;5030306;28;20446;-70
2022/08/10 04:31:18;;;;;;;4.00;3.17;;;17.70;53.80;;;;;;5031199;28;20488;-70
2022/08/10 04:34:05;;;;;;;7.80;2.87;;;17.60;53.80;;;;;;5033629;28;21061;-70
2022/08/10 04:36:54;;;;;;;9.23;3.40;;;17.50;55.40;;;;;;5033373;28;20440;-70
2022/08/10 04:39:40;;;;;;;4.80;3.20;;;17.50;56.30;;;;;;5038990;28;20534;-70
2022/08/10 04:42:25;;;;;;;7.73;3.20;;;17.70;55.50;;;;;;5027988;28;20557;-70
2022/08/10 04:45:13;;;;;;;4.30;3.37;;;17.60;54.80;;;;;;5033295;28;21138;-70
2022/08/10 04:47:58;;;;;;;9.30;2.87;;;17.50;55.60;;;;;;5031348;28;20484;-70
2022/08/10 04:50:44;;;;;;;4.77;3.40;;;17.60;55.80;;;;;;5031329;28;20444;-70
2022/08/10 04:53:31;;;;;;;3.70;2.90;;;17.60;55.60;;;;;;5030651;28;20451;-70
2022/08/10 04:56:16;;;;;;;3.30;2.57;;;17.70;57.00;;;;;;5032590;28;20440;-69
2022/08/10 04:59:02;;;;;;;5.27;3.43;;;17.70;57.10;;;;;;5023012;28;20452;-70
2022/08/10 05:01:47;;;;;;;3.33;2.70;;;17.80;56.50;;;;;;5029779;28;21033;-70
2022/08/10 05:04:33;;;;;;;4.97;2.93;;;17.90;56.30;;;;;;5030064;28;20459;-70
2022/08/10 05:07:19;;;;;;;4.60;3.33;;;18.00;55.60;;;;;;5036861;28;20480;-70
2022/08/10 05:10:06;;;;;;;9.93;3.10;;;18.10;55.30;;;;;;5026932;28;20448;-68
2022/08/10 05:12:52;;;;;;;7.10;3.07;;;18.20;56.60;;;;;;5030117;28;20459;-70
2022/08/10 05:15:40;;;;;;;4.37;3.10;;;18.30;56.30;;;;;;5029408;28;20971;-70
2022/08/10 05:18:25;;;;;;;7.97;2.63;;;18.20;55.60;;;;;;5031701;28;20530;-70
2022/08/10 05:21:11;;;;;;;4.00;2.97;;;18.30;56.30;;;;;;5024443;28;20470;-71
2022/08/10 05:24:03;;;;;;;4.63;2.83;;;18.40;55.60;;;;;;5027310;28;20447;-70
2022/08/10 05:26:50;;;;;;;7.73;3.80;;;18.50;57.80;;;;;;5032591;28;20487;-70
2022/08/10 05:29:35;;;;;;;7.00;3.10;;;18.50;56.30;;;;;;5033300;28;20902;-70
2022/08/10 05:32:21;;;;;;;8.60;2.97;;;18.50;57.50;;;;;;5036854;28;20460;-69
2022/08/10 05:35:07;;;;;;;7.20;3.27;;;18.60;58.00;;;;;;5041125;28;20586;-70
2022/08/10 05:37:55;;;;;;;6.47;2.93;;;18.80;56.00;;;;;;5034547;28;20464;-70
2022/08/10 05:40:42;;;;;;;3.47;2.83;;;18.90;55.30;;;;;;5031451;28;20451;-70
2022/08/10 05:43:29;;;;;;;7.90;2.73;;;18.90;58.30;;;;;;5030787;28;20976;-70
2022/08/10 05:46:15;;;;;;;5.20;2.80;;;19.00;57.20;;;;;;5035572;28;21000;-70
2022/08/10 05:49:00;;;;;;;3.80;2.70;;;19.10;58.50;;;;;;5036117;28;20439;-70
2022/08/10 05:51:46;;;;;;;5.90;3.17;;;19.20;60.00;;;;;;5033860;28;20475;-69
2022/08/10 05:54:32;;;;;;;6.43;2.77;;;19.20;58.50;;;;;;5039216;28;20490;-69
2022/08/10 05:57:22;;;;;;;7.10;2.67;;;19.40;57.90;;;;;;5035548;28;21109;-69
2022/08/10 06:00:13;;;;;;;9.70;3.50;;;19.50;57.10;;;;;;5032690;28;20798;-69
2022/08/10 06:03:03;;;;;;;5.83;2.57;;;19.70;55.20;;;;;;5033530;28;20464;-69
2022/08/10 06:05:49;;;;;;;4.60;2.90;;;19.90;56.30;;;;;;5039141;28;20545;-69
2022/08/10 06:08:38;;;;;;;12.00;3.10;;;20.10;55.70;;;;;;5037300;28;20495;-69
2022/08/10 06:11:27;;;;;;;5.50;3.20;;;20.20;55.90;;;;;;5030226;28;20468;-69
2022/08/10 06:17:22;;;;;;;6.00;2.60;;;20.50;55.30;;;;;;5032207;28;20810;-69
2022/08/10 06:20:10;;;;;;;5.90;2.97;;;20.70;54.80;;;;;;5033604;28;21104;-69
2022/08/10 06:22:57;;;;;;;6.83;2.93;;;20.80;54.90;;;;;;5034260;28;20472;-69
2022/08/10 06:25:42;;;;;;;3.27;2.57;;;20.90;53.10;;;;;;5039837;28;20969;-69
2022/08/10 06:28:32;;;;;;;3.20;2.43;;;21.10;47.90;;;;;;5032824;28;20538;-69
2022/08/10 06:31:19;;;;;;;3.30;2.37;;;21.40;46.20;;;;;;5032741;28;20643;-69
2022/08/10 06:34:08;;;;;;;4.70;3.00;;;21.60;41.30;;;;;;5034921;28;20449;-69
2022/08/10 06:36:59;;;;;;;2.80;2.10;;;21.80;41.00;;;;;;5033529;28;20504;-69
2022/08/10 06:39:45;;;;;;;5.43;2.67;;;21.90;37.30;;;;;;5031522;28;21033;-69
2022/08/10 06:42:34;;;;;;;4.00;2.57;;;22.20;33.90;;;;;;5032851;28;20471;-69
2022/08/10 06:45:25;;;;;;;3.63;2.43;;;22.30;35.30;;;;;;5035716;28;20788;-69
2022/08/10 06:48:20;;;;;;;3.87;2.60;;;22.40;33.00;;;;;;5032230;28;20500;-69
2022/08/10 06:51:14;;;;;;;8.50;2.90;;;22.60;33.70;;;;;;5031179;28;20563;-69
2022/08/10 06:54:03;;;;;;;5.87;2.40;;;22.70;33.10;;;;;;5034924;28;21003;-69
2022/08/10 06:56:51;;;;;;;3.10;2.10;;;22.80;32.30;;;;;;5034882;28;20448;-69
2022/08/10 06:59:40;;;;;;;8.20;3.00;;;22.90;31.70;;;;;;5032539;28;20445;-69
2022/08/10 07:02:29;;;;;;;5.50;2.63;;;23.10;32.10;;;;;;5041039;28;20464;-69
2022/08/10 07:05:19;;;;;;;5.33;2.87;;;23.20;32.40;;;;;;5044262;28;20433;-69
2022/08/10 07:08:09;;;;;;;5.30;2.90;;;23.30;31.20;;;;;;5035215;28;20562;-69
2022/08/10 07:10:56;;;;;;;7.30;2.70;;;23.40;30.60;;;;;;5031861;28;20468;-69
2022/08/10 07:13:43;;;;;;;5.63;2.70;;;23.40;30.70;;;;;;5034611;28;20563;-69
2022/08/10 07:16:31;;;;;;;5.60;2.77;;;23.50;30.00;;;;;;5041436;28;20444;-69
2022/08/10 07:19:18;;;;;;;9.20;2.40;;;23.50;30.10;;;;;;5028552;28;20503;-70
2022/08/10 07:22:06;;;;;;;4.70;2.37;;;23.70;30.70;;;;;;5028184;28;20472;-70
2022/08/10 07:24:55;;;;;;;4.90;2.03;;;23.80;29.50;;;;;;5036264;28;20500;-70
2022/08/10 07:27:42;;;;;;;6.50;2.17;;;23.90;29.90;;;;;;5045559;28;20467;-70
2022/08/10 07:30:30;;;;;;;3.67;2.57;;;24.00;30.00;;;;;;5038462;28;20466;-70
2022/08/10 07:33:19;;;;;;;3.30;2.10;;;24.10;28.90;;;;;;5031525;28;20428;-69
2022/08/10 07:36:06;;;;;;;5.20;2.40;;;24.30;29.20;;;;;;5029106;28;20874;-70
2022/08/10 07:38:55;;;;;;;2.80;1.70;;;24.40;29.60;;;;;;5029519;28;20443;-69
2022/08/10 07:41:46;;;;;;;3.70;2.17;;;24.50;29.20;;;;;;5037283;28;20536;-70
2022/08/10 07:44:35;;;;;;;6.13;2.37;;;24.60;28.40;;;;;;5031833;28;20456;-69
2022/08/10 07:47:29;;;;;;;3.70;1.90;;;24.70;28.60;;;;;;5035700;28;20829;-70
2022/08/10 07:50:18;;;;;;;4.77;2.23;;;24.70;28.20;;;;;;5031510;28;20457;-70
2022/08/10 07:53:07;;;;;;;3.43;2.00;;;24.90;27.90;;;;;;5029018;28;20439;-69
2022/08/10 07:55:54;;;;;;;10.20;2.10;;;25.00;27.50;;;;;;5030707;28;20444;-69
2022/08/10 07:58:46;;;;;;;2.43;1.57;;;25.10;26.50;;;;;;5027635;28;20440;-70
2022/08/10 08:01:34;;;;;;;3.00;1.80;;;25.20;27.10;;;;;;5032125;28;20464;-70
2022/08/10 08:04:22;;;;;;;4.83;1.93;;;25.20;26.90;;;;;;5036149;28;20448;-69
2022/08/10 08:07:08;;;;;;;6.10;2.83;;;25.30;26.40;;;;;;5032586;28;20464;-69
2022/08/10 08:09:56;;;;;;;3.63;2.30;;;25.40;26.00;;;;;;5025971;28;20966;-70
2022/08/10 08:12:43;;;;;;;6.60;2.30;;;25.40;25.30;;;;;;5034197;28;20472;-70
2022/08/10 08:15:33;;;;;;;3.57;2.10;;;25.50;26.00;;;;;;5047107;28;20455;-70
2022/08/10 08:18:23;;;;;;;4.83;2.17;;;25.60;26.20;;;;;;5038356;28;20950;-70
2022/08/10 08:21:09;;;;;;;3.50;2.13;;;25.60;25.90;;;;;;5037677;28;20467;-70
2022/08/10 08:23:56;;;;;;;3.87;2.30;;;25.80;26.00;;;;;;5033885;28;20523;-69
2022/08/10 08:26:43;;;;;;;12.93;2.00;;;25.80;25.00;;;;;;5032866;28;20472;-70
2022/08/10 08:29:31;;;;;;;3.77;2.23;;;25.90;24.70;;;;;;5031047;28;20966;-70
2022/08/10 08:32:22;;;;;;;11.10;2.67;;;26.00;24.10;;;;;;5035504;28;20468;-70
2022/08/10 08:35:09;;;;;;;10.13;2.03;;;26.00;23.70;;;;;;5032957;28;20449;-69
2022/08/10 08:37:56;;;;;;;6.83;2.17;;;26.10;24.30;;;;;;5028550;28;21085;-69
2022/08/10 08:40:48;;;;;;;3.60;2.00;;;26.10;23.20;;;;;;5033285;28;20913;-70
2022/08/10 08:43:48;;;;;;;3.50;1.73;;;26.10;23.40;;;;;;5031646;28;20477;-70
2022/08/10 08:46:52;;;;;;;5.03;2.13;;;26.20;23.10;;;;;;5031794;28;20470;-71
2022/08/10 08:50:05;;;;;;;3.53;2.20;;;26.30;23.00;;;;;;5029362;28;20444;-71
2022/08/10 08:52:59;;;;;;;3.80;2.20;;;26.40;23.90;;;;;;5032869;28;20475;-70
2022/08/10 08:55:50;;;;;;;3.37;2.40;;;26.50;22.00;;;;;;5030016;28;20678;-71
2022/08/10 08:58:58;;;;;;;6.20;2.57;;;26.50;22.10;;;;;;5025042;28;20961;-70
2022/08/10 09:01:56;;;;;;;3.63;2.30;;;26.60;23.50;;;;;;5032351;28;20467;-70
2022/08/10 09:05:04;;;;;;;6.73;2.10;;;26.70;22.80;;;;;;5041377;28;20904;-70
2022/08/10 09:08:16;;;;;;;6.70;2.00;;;26.80;23.20;;;;;;5028177;28;20476;-70
2022/08/10 09:11:09;;;;;;;4.40;2.60;;;26.90;22.40;;;;;;5037865;28;20444;-70
2022/08/10 09:14:01;;;;;;;7.60;2.30;;;27.00;21.60;;;;;;5041741;28;20444;-70
2022/08/10 09:16:53;;;;;;;3.77;2.37;;;27.00;21.20;;;;;;5038626;28;20938;-70
2022/08/10 09:19:46;;;;;;;5.03;2.30;;;27.00;20.70;;;;;;5035411;28;20431;-70
2022/08/10 09:22:42;;;;;;;5.80;2.17;;;27.00;20.60;;;;;;5042406;28;20439;-70
2022/08/10 09:25:34;;;;;;;3.77;2.80;;;27.00;20.30;;;;;;5047640;28;20791;-70
2022/08/10 09:28:25;;;;;;;2.63;1.90;;;27.10;20.30;;;;;;5028014;28;20632;-71
2022/08/10 09:31:12;;;;;;;9.37;2.43;;;27.20;20.40;;;;;;5029217;28;20535;-70
2022/08/10 09:34:07;;;;;;;4.00;2.37;;;27.20;20.40;;;;;;5042790;28;20432;-70
2022/08/10 09:37:03;;;;;;;4.93;2.60;;;27.30;21.60;;;;;;5042792;28;20428;-71
2022/08/10 09:39:55;;;;;;;2.93;2.20;;;27.40;20.40;;;;;;5036761;28;20513;-70
2022/08/10 09:42:49;;;;;;;5.33;2.13;;;27.50;19.90;;;;;;5039973;28;20448;-70
2022/08/10 09:45:45;;;;;;;7.10;2.87;;;27.60;20.70;;;;;;5038599;28;20423;-70
2022/08/10 09:48:37;;;;;;;3.13;2.30;;;27.60;19.70;;;;;;5024563;28;20562;-70
2022/08/10 09:51:31;;;;;;;3.07;2.20;;;27.70;19.00;;;;;;5038955;28;20984;-70
2022/08/10 09:54:35;;;;;;;7.00;2.50;;;27.80;18.40;;;;;;5041038;28;20436;-70
2022/08/10 09:57:31;;;;;;;3.30;1.90;;;27.80;18.60;;;;;;5034414;28;20447;-70
2022/08/10 10:00:20;;;;;;;3.67;2.27;;;27.90;18.50;;;;;;5034258;28;20429;-70
2022/08/10 10:03:15;;;;;;;3.70;2.40;;;28.00;19.00;;;;;;5050357;28;20530;-71
2022/08/10 10:06:08;;;;;;;4.53;2.67;;;28.20;17.60;;;;;;5048141;28;20427;-70
2022/08/10 10:09:03;;;;;;;6.23;2.67;;;28.20;16.90;;;;;;5041173;28;20522;-70
2022/08/10 10:12:05;;;;;;;4.00;2.03;;;28.20;17.60;;;;;;5039979;28;20451;-70
2022/08/10 10:15:19;;;;;;;9.33;2.10;;;28.20;17.60;;;;;;5039245;28;20455;-71
2022/08/10 10:18:20;;;;;;;4.70;2.23;;;28.20;17.50;;;;;;5033554;28;20441;-70
2022/08/10 10:21:11;;;;;;;4.90;2.20;;;28.30;18.40;;;;;;5047237;28;20451;-70
2022/08/10 10:24:06;;;;;;;4.40;2.70;;;28.30;17.20;;;;;;5048715;28;20428;-70
2022/08/10 10:26:57;;;;;;;3.03;1.90;;;28.30;18.10;;;;;;5032264;28;20460;-70
2022/08/10 10:29:52;;;;;;;6.40;2.40;;;28.40;17.30;;;;;;5044275;28;20436;-70
2022/08/10 10:32:56;;;;;;;5.53;1.87;;;28.40;17.90;;;;;;5038589;28;20471;-69
2022/08/10 10:35:49;;;;;;;4.80;2.40;;;28.50;18.80;;;;;;5031659;28;20517;-71
2022/08/10 10:38:37;;;;;;;5.27;2.23;;;28.70;17.40;;;;;;5037920;28;20447;-71
2022/08/10 10:41:35;;;;;;;4.60;2.30;;;28.80;17.10;;;;;;5043952;28;20589;-71
2022/08/10 10:44:35;;;;;;;5.53;2.10;;;28.70;17.10;;;;;;5035078;28;20969;-71
2022/08/10 10:47:37;;;;;;;5.87;2.33;;;28.80;18.10;;;;;;5034474;28;20974;-71
2022/08/10 10:50:34;;;;;;;10.07;2.07;;;28.80;17.50;;;;;;5050138;28;20427;-70
2022/08/10 10:53:27;;;;;;;4.13;2.60;;;28.90;17.20;;;;;;5047392;28;20411;-70
2022/08/10 10:56:20;;;;;;;4.03;2.10;;;28.90;16.80;;;;;;5041389;28;20448;-70
2022/08/10 10:59:17;;;;;;;6.17;2.93;;;28.80;18.50;;;;;;5028279;28;20444;-71
2022/08/10 11:02:20;;;;;;;4.17;2.30;;;28.90;18.10;;;;;;5030263;28;20525;-71
2022/08/10 11:05:18;;;;;;;3.60;2.00;;;29.00;17.90;;;;;;5026492;28;20448;-71
2022/08/10 11:08:10;;;;;;;3.30;2.07;;;29.20;17.40;;;;;;5034535;28;21011;-70
2022/08/10 11:10:59;;;;;;;4.10;2.33;;;29.30;16.00;;;;;;5041350;28;20424;-70
2022/08/10 11:13:54;;;;;;;3.90;2.87;;;29.30;16.20;;;;;;5038400;28;20424;-70
2022/08/10 11:16:47;;;;;;;6.10;3.37;;;29.30;16.50;;;;;;5026665;28;20591;-71
2022/08/10 11:19:42;;;;;;;9.87;2.30;;;29.30;17.10;;;;;;5031937;28;20639;-71
2022/08/10 11:22:33;;;;;;;5.07;2.33;;;29.40;16.00;;;;;;5036387;28;20464;-71
2022/08/10 11:25:28;;;;;;;7.47;2.03;;;29.40;15.40;;;;;;5037830;28;20452;-71
2022/08/10 11:28:19;;;;;;;5.30;2.17;;;29.40;16.40;;;;;;5033370;28;20475;-71
2022/08/10 11:31:13;;;;;;;5.93;2.37;;;29.50;15.50;;;;;;5034395;28;20606;-70
2022/08/10 11:34:02;;;;;;;4.00;2.23;;;29.60;15.20;;;;;;5039467;28;20793;-71
2022/08/10 11:36:57;;;;;;;3.90;2.10;;;29.70;15.80;;;;;;5026967;28;20493;-71
2022/08/10 11:39:51;;;;;;;3.67;2.27;;;29.80;14.90;;;;;;5038758;28;20424;-71
2022/08/10 11:42:43;;;;;;;4.00;2.30;;;29.80;16.10;;;;;;5042266;28;20469;-71
2022/08/10 11:45:33;;;;;;;6.50;2.30;;;29.90;15.50;;;;;;5032945;28;20823;-71
2022/08/10 11:48:27;;;;;;;3.50;2.03;;;30.00;14.40;;;;;;5037141;28;20841;-71
2022/08/10 11:51:19;;;;;;;7.13;2.47;;;30.10;14.80;;;;;;5046977;28;20839;-71
2022/08/10 11:54:10;;;;;;;3.50;2.17;;;30.10;14.20;;;;;;5041127;28;20490;-71
2022/08/10 11:56:58;;;;;;;4.20;2.30;;;30.20;14.90;;;;;;5022830;28;20464;-71
2022/08/10 11:59:57;;;;;;;3.10;2.03;;;30.20;15.20;;;;;;5030099;28;20523;-72
2022/08/10 12:02:47;;;;;;;4.50;2.40;;;30.30;14.30;;;;;;5034262;28;20476;-71
2022/08/10 12:05:37;;;;;;;6.70;2.47;;;30.40;14.90;;;;;;5029186;28;20800;-71
2022/08/10 12:08:25;;;;;;;5.10;2.40;;;30.40;14.60;;;;;;5048019;28;21001;-72
2022/08/10 12:11:14;;;;;;;6.03;2.57;;;30.50;14.20;;;;;;5034809;28;20460;-71
2022/08/10 12:14:06;;;;;;;7.37;2.37;;;30.60;14.30;;;;;;5038810;28;20447;-71
2022/08/10 12:17:03;;;;;;;5.30;2.37;;;30.60;14.40;;;;;;5032875;28;20953;-72
2022/08/10 12:19:56;;;;;;;6.60;2.67;;;30.80;14.40;;;;;;5038167;28;20420;-71
2022/08/10 12:22:49;;;;;;;5.73;2.27;;;31.00;14.10;;;;;;5034653;28;20513;-71
2022/08/10 12:25:41;;;;;;;4.30;2.37;;;31.10;14.50;;;;;;5036322;28;20450;-71
2022/08/10 12:28:34;;;;;;;6.30;2.03;;;31.20;13.60;;;;;;5034321;28;20594;-72
2022/08/10 12:31:30;;;;;;;6.77;2.50;;;31.20;14.10;;;;;;5031153;28;20476;-72
2022/08/10 12:34:26;;;;;;;3.97;2.20;;;31.20;13.80;;;;;;5030837;28;21000;-70
2022/08/10 12:37:20;;;;;;;6.40;2.30;;;31.30;13.00;;;;;;5027625;28;20571;-72
2022/08/10 12:40:15;;;;;;;4.13;2.20;;;31.20;12.60;;;;;;5041264;28;20447;-71
2022/08/10 12:43:08;;;;;;;5.07;2.63;;;31.20;13.30;;;;;;5039282;28;20469;-72
2022/08/10 12:46:02;;;;;;;3.93;2.07;;;31.30;12.80;;;;;;5023996;28;20452;-72
2022/08/10 12:48:54;;;;;;;4.57;2.20;;;31.30;11.60;;;;;;5043512;28;20491;-71
2022/08/10 12:51:45;;;;;;;3.67;2.37;;;31.30;12.10;;;;;;5034115;28;20464;-70
2022/08/10 12:54:36;;;;;;;4.20;2.30;;;31.20;11.70;;;;;;5025551;28;20832;-70
2022/08/10 12:57:23;;;;;;;3.43;2.13;;;31.20;12.20;;;;;;5030221;28;20958;-71
2022/08/10 13:00:10;;;;;;;6.63;2.37;;;31.20;12.10;;;;;;5032702;28;20453;-70
2022/08/10 13:02:58;;;;;;;4.57;2.73;;;31.30;11.80;;;;;;5029589;28;20455;-71
2022/08/10 13:05:44;;;;;;;2.90;1.97;;;31.40;12.40;;;;;;5021923;28;20452;-71
2022/08/10 13:11:41;;;;;;;6.40;2.20;;;31.70;11.50;;;;;;5026694;28;20468;-69
2022/08/10 13:14:31;;;;;;;4.20;2.03;;;31.80;11.80;;;;;;5030383;28;20431;-70
2022/08/10 13:17:25;;;;;;;3.73;1.90;;;32.00;11.50;;;;;;5033540;28;20428;-70
2022/08/10 13:20:18;;;;;;;3.47;1.90;;;32.20;11.50;;;;;;5042531;28;20575;-71
2022/08/10 13:23:11;;;;;;;7.93;1.83;;;32.30;11.60;;;;;;5028841;28;20471;-70
2022/08/10 13:26:01;;;;;;;6.40;2.20;;;32.40;10.80;;;;;;5023088;28;20841;-71
2022/08/10 13:28:49;;;;;;;3.83;1.90;;;32.30;10.30;;;;;;5018416;28;20470;-71
2022/08/10 13:31:35;;;;;;;3.73;2.00;;;32.40;9.70;;;;;;5023669;28;20477;-72
2022/08/10 13:34:22;;;;;;;5.60;2.07;;;32.50;9.90;;;;;;5028262;28;20456;-71
2022/08/10 13:37:10;;;;;;;3.80;2.10;;;32.60;10.00;;;;;;5018145;28;22566;-71
2022/08/10 13:40:00;;;;;;;4.83;2.50;;;32.70;9.60;;;;;;5026297;28;20464;-72
2022/08/10 13:42:50;;;;;;;5.60;2.07;;;32.90;9.50;;;;;;5026015;28;20495;-71
2022/08/10 13:45:41;;;;;;;4.50;2.53;;;33.10;8.30;;;;;;5021752;28;20456;-71
2022/08/10 13:48:29;;;;;;;3.17;1.93;;;33.10;8.80;;;;;;5027741;28;20971;-71
2022/08/10 13:51:17;;;;;;;3.07;1.97;;;33.10;8.00;;;;;;5038920;28;21203;-71
2022/08/10 13:54:05;;;;;;;5.50;2.13;;;33.10;10.00;;;;;;5032177;28;20447;-71
2022/08/10 13:56:51;;;;;;;5.10;2.10;;;33.10;8.60;;;;;;5028109;28;20456;-71
2022/08/10 13:59:40;;;;;;;4.47;2.10;;;33.10;9.60;;;;;;5025320;28;20490;-70
2022/08/10 14:02:29;;;;;;;4.47;2.30;;;33.20;9.00;;;;;;5031065;28;20516;-71
2022/08/10 14:05:22;;;;;;;4.30;2.43;;;33.20;10.10;;;;;;5028714;28;20452;-71
2022/08/10 14:08:13;;;;;;;4.63;1.77;;;33.30;10.00;;;;;;5028377;28;20949;-72
2022/08/10 14:11:02;;;;;;;4.10;1.90;;;33.50;9.40;;;;;;5029739;28;20451;-71
2022/08/10 14:13:53;;;;;;;4.37;2.47;;;33.40;8.30;;;;;;5024131;28;20467;-71
2022/08/10 14:16:44;;;;;;;4.20;2.03;;;33.40;8.50;;;;;;5028791;28;20436;-71
2022/08/10 14:19:32;;;;;;;10.40;2.50;;;33.30;8.30;;;;;;5033668;28;20436;-72
2022/08/10 14:22:18;;;;;;;3.30;1.83;;;33.20;8.70;;;;;;5031630;28;20479;-72
2022/08/10 14:25:06;;;;;;;9.13;2.30;;;33.30;8.40;;;;;;5029597;28;20958;-71
2022/08/10 14:27:55;;;;;;;9.17;2.00;;;33.20;8.60;;;;;;5026302;28;20448;-72
2022/08/10 14:30:45;;;;;;;4.30;2.40;;;33.20;8.50;;;;;;5023175;28;20535;-71
2022/08/10 14:33:34;;;;;;;6.80;2.27;;;33.10;8.30;;;;;;5027978;28;20564;-71
2022/08/10 14:36:28;;;;;;;4.43;2.83;;;33.10;8.60;;;;;;5018567;28;20442;-72
2022/08/10 14:39:20;;;;;;;3.10;1.87;;;33.10;8.30;;;;;;5027774;28;20494;-72
2022/08/10 14:42:10;;;;;;;3.10;2.07;;;33.00;9.50;;;;;;5032549;28;21061;-71
2022/08/10 14:45:02;;;;;;;3.83;2.10;;;33.00;8.80;;;;;;5024230;28;20955;-72
2022/08/10 14:47:51;;;;;;;5.90;2.50;;;33.10;9.70;;;;;;5016961;28;20516;-71
2022/08/10 14:50:39;;;;;;;9.40;3.70;;;33.20;8.60;;;;;;5048255;28;21003;-71
2022/08/10 14:53:27;;;;;;;6.27;2.70;;;33.00;8.20;;;;;;5037663;28;20826;-72